sensor_id;sensor_type;location;lat;lon;timestamp;P1;durP1;ratioP1;P2;durP2;ratioP2
69410;SDS011;56604;48.652;9.194;2023-05-07T00:01:36;3.67;;;3.33;;
69410;SDS011;56604;48.652;9.194;2023-05-07T00:04:01;3.40;;;3.20;;
69410;SDS011;56604;48.652;9.194;2023-05-07T00:06:28;3.20;;;3.00;;
69410;SDS011;56604;48.652;9.194;2023-05-07T00:08:54;10.10;;;3.50;;
69410;SDS011;56604;48.652;9.194;2023-05-07T00:11:19;5.97;;;3.90;;
69410;SDS011;56604;48.652;9.194;2023-05-07T00:13:45;3.50;;;3.30;;
69410;SDS011;56604;48.652;9.194;2023-05-07T00:16:10;5.27;;;4.20;;
69410;SDS011;56604;48.652;9.194;2023-05-07T00:18:36;5.23;;;3.83;;
69410;SDS011;56604;48.652;9.194;2023-05-07T00:21:01;3.57;;;3.27;;
69410;SDS011;56604;48.652;9.194;2023-05-07T00:23:26;12.63;;;3.80;;
69410;SDS011;56604;48.652;9.194;2023-05-07T00:25:52;4.00;;;3.70;;
69410;SDS011;56604;48.652;9.194;2023-05-07T00:28:17;4.43;;;4.03;;
69410;SDS011;56604;48.652;9.194;2023-05-07T00:30:42;4.57;;;4.17;;
69410;SDS011;56604;48.652;9.194;2023-05-07T00:33:07;6.80;;;4.10;;
69410;SDS011;56604;48.652;9.194;2023-05-07T00:35:33;5.00;;;4.53;;
69410;SDS011;56604;48.652;9.194;2023-05-07T00:37:58;19.13;;;5.30;;
69410;SDS011;56604;48.652;9.194;2023-05-07T00:40:24;8.00;;;5.30;;
69410;SDS011;56604;48.652;9.194;2023-05-07T00:42:49;5.57;;;5.00;;
69410;SDS011;56604;48.652;9.194;2023-05-07T00:45:15;5.23;;;4.73;;
69410;SDS011;56604;48.652;9.194;2023-05-07T00:47:41;6.50;;;4.80;;
69410;SDS011;56604;48.652;9.194;2023-05-07T00:50:07;5.77;;;5.13;;
69410;SDS011;56604;48.652;9.194;2023-05-07T00:52:36;5.73;;;5.00;;
69410;SDS011;56604;48.652;9.194;2023-05-07T00:55:04;10.43;;;5.13;;
69410;SDS011;56604;48.652;9.194;2023-05-07T00:57:36;13.07;;;5.10;;
69410;SDS011;56604;48.652;9.194;2023-05-07T01:00:03;5.77;;;5.23;;
69410;SDS011;56604;48.652;9.194;2023-05-07T01:02:29;6.23;;;5.37;;
69410;SDS011;56604;48.652;9.194;2023-05-07T01:04:55;6.00;;;5.40;;
69410;SDS011;56604;48.652;9.194;2023-05-07T01:07:21;10.73;;;5.40;;
69410;SDS011;56604;48.652;9.194;2023-05-07T01:09:47;5.60;;;5.00;;
69410;SDS011;56604;48.652;9.194;2023-05-07T01:12:13;5.67;;;4.60;;
69410;SDS011;56604;48.652;9.194;2023-05-07T01:14:38;4.50;;;4.13;;
69410;SDS011;56604;48.652;9.194;2023-05-07T01:17:03;4.97;;;4.57;;
69410;SDS011;56604;48.652;9.194;2023-05-07T01:19:29;4.97;;;3.90;;
69410;SDS011;56604;48.652;9.194;2023-05-07T01:21:55;5.30;;;4.03;;
69410;SDS011;56604;48.652;9.194;2023-05-07T01:24:27;4.70;;;4.30;;
69410;SDS011;56604;48.652;9.194;2023-05-07T01:26:52;9.50;;;4.73;;
69410;SDS011;56604;48.652;9.194;2023-05-07T01:29:18;7.10;;;3.93;;
69410;SDS011;56604;48.652;9.194;2023-05-07T01:31:43;4.87;;;4.40;;
69410;SDS011;56604;48.652;9.194;2023-05-07T01:34:09;4.90;;;4.40;;
69410;SDS011;56604;48.652;9.194;2023-05-07T01:36:38;9.50;;;4.57;;
69410;SDS011;56604;48.652;9.194;2023-05-07T01:39:05;4.10;;;3.80;;
69410;SDS011;56604;48.652;9.194;2023-05-07T01:41:31;6.23;;;4.07;;
69410;SDS011;56604;48.652;9.194;2023-05-07T01:43:56;4.40;;;4.00;;
69410;SDS011;56604;48.652;9.194;2023-05-07T01:46:23;4.83;;;3.70;;
69410;SDS011;56604;48.652;9.194;2023-05-07T01:48:49;4.93;;;3.70;;
69410;SDS011;56604;48.652;9.194;2023-05-07T01:51:15;3.70;;;3.47;;
69410;SDS011;56604;48.652;9.194;2023-05-07T01:53:41;6.37;;;3.60;;
69410;SDS011;56604;48.652;9.194;2023-05-07T01:56:06;5.47;;;4.00;;
69410;SDS011;56604;48.652;9.194;2023-05-07T01:58:32;3.43;;;3.13;;
69410;SDS011;56604;48.652;9.194;2023-05-07T02:00:57;3.47;;;3.27;;
69410;SDS011;56604;48.652;9.194;2023-05-07T02:03:22;4.27;;;3.87;;
69410;SDS011;56604;48.652;9.194;2023-05-07T02:05:48;4.20;;;3.90;;
69410;SDS011;56604;48.652;9.194;2023-05-07T02:08:13;6.00;;;3.53;;
69410;SDS011;56604;48.652;9.194;2023-05-07T02:10:38;3.80;;;3.50;;
69410;SDS011;56604;48.652;9.194;2023-05-07T02:13:04;3.67;;;3.37;;
69410;SDS011;56604;48.652;9.194;2023-05-07T02:15:29;11.00;;;3.77;;
69410;SDS011;56604;48.652;9.194;2023-05-07T02:18:02;4.23;;;3.93;;
69410;SDS011;56604;48.652;9.194;2023-05-07T02:20:28;3.87;;;3.40;;
69410;SDS011;56604;48.652;9.194;2023-05-07T02:22:54;3.80;;;3.50;;
69410;SDS011;56604;48.652;9.194;2023-05-07T02:25:19;4.17;;;3.77;;
69410;SDS011;56604;48.652;9.194;2023-05-07T02:27:45;8.87;;;3.77;;
69410;SDS011;56604;48.652;9.194;2023-05-07T02:30:10;4.33;;;3.97;;
69410;SDS011;56604;48.652;9.194;2023-05-07T02:32:35;5.63;;;3.73;;
69410;SDS011;56604;48.652;9.194;2023-05-07T02:35:01;3.60;;;3.30;;
69410;SDS011;56604;48.652;9.194;2023-05-07T02:37:26;4.30;;;3.70;;
69410;SDS011;56604;48.652;9.194;2023-05-07T02:39:51;11.73;;;3.80;;
69410;SDS011;56604;48.652;9.194;2023-05-07T02:42:17;6.43;;;3.53;;
69410;SDS011;56604;48.652;9.194;2023-05-07T02:44:42;4.73;;;3.93;;
69410;SDS011;56604;48.652;9.194;2023-05-07T02:47:07;5.37;;;3.73;;
69410;SDS011;56604;48.652;9.194;2023-05-07T02:49:34;3.60;;;3.30;;
69410;SDS011;56604;48.652;9.194;2023-05-07T02:51:59;7.30;;;3.30;;
69410;SDS011;56604;48.652;9.194;2023-05-07T02:54:25;3.87;;;3.47;;
69410;SDS011;56604;48.652;9.194;2023-05-07T02:56:50;6.73;;;3.43;;
69410;SDS011;56604;48.652;9.194;2023-05-07T02:59:15;5.00;;;3.63;;
69410;SDS011;56604;48.652;9.194;2023-05-07T03:01:40;4.80;;;3.87;;
69410;SDS011;56604;48.652;9.194;2023-05-07T03:04:08;5.43;;;4.07;;
69410;SDS011;56604;48.652;9.194;2023-05-07T03:06:34;4.87;;;4.40;;
69410;SDS011;56604;48.652;9.194;2023-05-07T03:09:00;4.20;;;3.77;;
69410;SDS011;56604;48.652;9.194;2023-05-07T03:11:25;5.77;;;3.93;;
69410;SDS011;56604;48.652;9.194;2023-05-07T03:13:50;3.93;;;3.73;;
69410;SDS011;56604;48.652;9.194;2023-05-07T03:16:16;5.30;;;3.63;;
69410;SDS011;56604;48.652;9.194;2023-05-07T03:18:41;4.13;;;3.80;;
69410;SDS011;56604;48.652;9.194;2023-05-07T03:21:06;4.50;;;4.10;;
69410;SDS011;56604;48.652;9.194;2023-05-07T03:23:31;7.27;;;4.43;;
69410;SDS011;56604;48.652;9.194;2023-05-07T03:25:57;4.40;;;3.97;;
69410;SDS011;56604;48.652;9.194;2023-05-07T03:28:22;4.87;;;4.10;;
69410;SDS011;56604;48.652;9.194;2023-05-07T03:30:47;6.73;;;4.23;;
69410;SDS011;56604;48.652;9.194;2023-05-07T03:33:13;4.00;;;3.77;;
69410;SDS011;56604;48.652;9.194;2023-05-07T03:35:38;6.27;;;3.57;;
69410;SDS011;56604;48.652;9.194;2023-05-07T03:38:03;4.40;;;4.00;;
69410;SDS011;56604;48.652;9.194;2023-05-07T03:40:29;9.60;;;4.03;;
69410;SDS011;56604;48.652;9.194;2023-05-07T03:42:54;4.13;;;3.73;;
69410;SDS011;56604;48.652;9.194;2023-05-07T03:45:20;5.17;;;4.10;;
69410;SDS011;56604;48.652;9.194;2023-05-07T03:47:45;4.53;;;4.23;;
69410;SDS011;56604;48.652;9.194;2023-05-07T03:50:10;4.40;;;4.00;;
69410;SDS011;56604;48.652;9.194;2023-05-07T03:52:36;4.60;;;4.20;;
69410;SDS011;56604;48.652;9.194;2023-05-07T03:55:01;15.30;;;4.30;;
69410;SDS011;56604;48.652;9.194;2023-05-07T03:57:26;4.03;;;3.70;;
69410;SDS011;56604;48.652;9.194;2023-05-07T03:59:52;7.13;;;4.07;;
69410;SDS011;56604;48.652;9.194;2023-05-07T04:02:17;4.83;;;4.07;;
69410;SDS011;56604;48.652;9.194;2023-05-07T04:04:42;5.47;;;3.67;;
69410;SDS011;56604;48.652;9.194;2023-05-07T04:07:07;5.33;;;4.27;;
69410;SDS011;56604;48.652;9.194;2023-05-07T04:09:33;4.10;;;3.70;;
69410;SDS011;56604;48.652;9.194;2023-05-07T04:11:58;5.37;;;3.90;;
69410;SDS011;56604;48.652;9.194;2023-05-07T04:14:23;4.63;;;4.20;;
69410;SDS011;56604;48.652;9.194;2023-05-07T04:16:49;8.40;;;4.00;;
69410;SDS011;56604;48.652;9.194;2023-05-07T04:19:14;4.10;;;3.80;;
69410;SDS011;56604;48.652;9.194;2023-05-07T04:21:39;4.10;;;3.67;;
69410;SDS011;56604;48.652;9.194;2023-05-07T04:24:05;4.23;;;3.93;;
69410;SDS011;56604;48.652;9.194;2023-05-07T04:26:30;3.70;;;3.40;;
69410;SDS011;56604;48.652;9.194;2023-05-07T04:28:56;3.97;;;3.13;;
69410;SDS011;56604;48.652;9.194;2023-05-07T04:31:24;6.13;;;3.37;;
69410;SDS011;56604;48.652;9.194;2023-05-07T04:33:49;8.03;;;3.70;;
69410;SDS011;56604;48.652;9.194;2023-05-07T04:36:15;6.43;;;3.03;;
69410;SDS011;56604;48.652;9.194;2023-05-07T04:38:41;6.30;;;3.27;;
69410;SDS011;56604;48.652;9.194;2023-05-07T04:41:06;6.27;;;3.57;;
69410;SDS011;56604;48.652;9.194;2023-05-07T04:43:33;3.37;;;3.00;;
69410;SDS011;56604;48.652;9.194;2023-05-07T04:45:59;3.90;;;3.60;;
69410;SDS011;56604;48.652;9.194;2023-05-07T04:48:24;5.20;;;3.60;;
69410;SDS011;56604;48.652;9.194;2023-05-07T04:50:50;4.20;;;3.80;;
69410;SDS011;56604;48.652;9.194;2023-05-07T04:53:16;3.90;;;3.50;;
69410;SDS011;56604;48.652;9.194;2023-05-07T04:55:42;4.37;;;3.60;;
69410;SDS011;56604;48.652;9.194;2023-05-07T04:58:08;4.77;;;3.63;;
69410;SDS011;56604;48.652;9.194;2023-05-07T05:00:33;7.23;;;3.40;;
69410;SDS011;56604;48.652;9.194;2023-05-07T05:02:59;3.37;;;3.17;;
69410;SDS011;56604;48.652;9.194;2023-05-07T05:05:24;3.33;;;3.13;;
69410;SDS011;56604;48.652;9.194;2023-05-07T05:07:49;3.57;;;3.27;;
69410;SDS011;56604;48.652;9.194;2023-05-07T05:10:16;4.90;;;3.57;;
69410;SDS011;56604;48.652;9.194;2023-05-07T05:12:42;6.97;;;3.57;;
69410;SDS011;56604;48.652;9.194;2023-05-07T05:15:07;3.60;;;3.30;;
69410;SDS011;56604;48.652;9.194;2023-05-07T05:17:33;6.50;;;3.60;;
69410;SDS011;56604;48.652;9.194;2023-05-07T05:20:00;5.33;;;3.27;;
69410;SDS011;56604;48.652;9.194;2023-05-07T05:22:25;3.37;;;3.10;;
69410;SDS011;56604;48.652;9.194;2023-05-07T05:24:50;3.70;;;3.30;;
69410;SDS011;56604;48.652;9.194;2023-05-07T05:27:16;5.90;;;3.33;;
69410;SDS011;56604;48.652;9.194;2023-05-07T05:29:41;3.40;;;3.20;;
69410;SDS011;56604;48.652;9.194;2023-05-07T05:32:06;3.67;;;2.80;;
69410;SDS011;56604;48.652;9.194;2023-05-07T05:34:32;2.90;;;2.80;;
69410;SDS011;56604;48.652;9.194;2023-05-07T05:36:58;3.47;;;3.10;;
69410;SDS011;56604;48.652;9.194;2023-05-07T05:39:24;9.03;;;3.13;;
69410;SDS011;56604;48.652;9.194;2023-05-07T05:41:49;2.97;;;2.77;;
69410;SDS011;56604;48.652;9.194;2023-05-07T05:44:15;10.83;;;3.30;;
69410;SDS011;56604;48.652;9.194;2023-05-07T05:46:40;3.50;;;3.30;;
69410;SDS011;56604;48.652;9.194;2023-05-07T05:49:05;2.70;;;2.60;;
69410;SDS011;56604;48.652;9.194;2023-05-07T05:51:31;4.40;;;3.07;;
69410;SDS011;56604;48.652;9.194;2023-05-07T05:53:57;18.33;;;3.40;;
69410;SDS011;56604;48.652;9.194;2023-05-07T05:56:22;3.40;;;3.10;;
69410;SDS011;56604;48.652;9.194;2023-05-07T05:58:47;3.00;;;2.80;;
69410;SDS011;56604;48.652;9.194;2023-05-07T06:01:13;3.07;;;2.50;;
69410;SDS011;56604;48.652;9.194;2023-05-07T06:03:38;2.97;;;2.77;;
69410;SDS011;56604;48.652;9.194;2023-05-07T06:06:03;3.70;;;2.60;;
69410;SDS011;56604;48.652;9.194;2023-05-07T06:08:29;4.87;;;3.00;;
69410;SDS011;56604;48.652;9.194;2023-05-07T06:10:54;7.33;;;3.37;;
69410;SDS011;56604;48.652;9.194;2023-05-07T06:13:19;3.50;;;3.10;;
69410;SDS011;56604;48.652;9.194;2023-05-07T06:15:45;2.83;;;2.60;;
69410;SDS011;56604;48.652;9.194;2023-05-07T06:18:10;5.97;;;3.40;;
69410;SDS011;56604;48.652;9.194;2023-05-07T06:20:36;3.77;;;3.27;;
69410;SDS011;56604;48.652;9.194;2023-05-07T06:23:01;3.17;;;2.90;;
69410;SDS011;56604;48.652;9.194;2023-05-07T06:25:26;4.70;;;2.90;;
69410;SDS011;56604;48.652;9.194;2023-05-07T06:27:52;3.43;;;3.10;;
69410;SDS011;56604;48.652;9.194;2023-05-07T06:30:17;7.37;;;3.20;;
69410;SDS011;56604;48.652;9.194;2023-05-07T06:32:43;3.10;;;2.90;;
69410;SDS011;56604;48.652;9.194;2023-05-07T06:35:08;2.77;;;2.67;;
69410;SDS011;56604;48.652;9.194;2023-05-07T06:37:33;8.57;;;3.17;;
69410;SDS011;56604;48.652;9.194;2023-05-07T06:39:59;3.83;;;3.17;;
69410;SDS011;56604;48.652;9.194;2023-05-07T06:42:24;3.53;;;3.23;;
69410;SDS011;56604;48.652;9.194;2023-05-07T06:44:50;2.90;;;2.80;;
69410;SDS011;56604;48.652;9.194;2023-05-07T06:47:15;3.37;;;3.07;;
69410;SDS011;56604;48.652;9.194;2023-05-07T06:49:40;3.17;;;2.97;;
69410;SDS011;56604;48.652;9.194;2023-05-07T06:52:06;4.57;;;3.20;;
69410;SDS011;56604;48.652;9.194;2023-05-07T06:54:31;4.97;;;3.33;;
69410;SDS011;56604;48.652;9.194;2023-05-07T06:56:56;3.73;;;3.40;;
69410;SDS011;56604;48.652;9.194;2023-05-07T06:59:21;7.80;;;3.43;;
69410;SDS011;56604;48.652;9.194;2023-05-07T07:01:47;3.90;;;3.60;;
69410;SDS011;56604;48.652;9.194;2023-05-07T07:04:12;3.73;;;3.27;;
69410;SDS011;56604;48.652;9.194;2023-05-07T07:06:37;4.10;;;3.70;;
69410;SDS011;56604;48.652;9.194;2023-05-07T07:09:03;3.30;;;3.03;;
69410;SDS011;56604;48.652;9.194;2023-05-07T07:11:28;3.03;;;2.80;;
69410;SDS011;56604;48.652;9.194;2023-05-07T07:13:53;3.20;;;3.00;;
69410;SDS011;56604;48.652;9.194;2023-05-07T07:16:19;3.67;;;3.00;;
69410;SDS011;56604;48.652;9.194;2023-05-07T07:18:46;3.10;;;2.90;;
69410;SDS011;56604;48.652;9.194;2023-05-07T07:21:11;3.13;;;2.87;;
69410;SDS011;56604;48.652;9.194;2023-05-07T07:23:37;7.60;;;3.00;;
69410;SDS011;56604;48.652;9.194;2023-05-07T07:26:02;3.10;;;2.90;;
69410;SDS011;56604;48.652;9.194;2023-05-07T07:28:27;3.67;;;3.37;;
69410;SDS011;56604;48.652;9.194;2023-05-07T07:30:53;4.90;;;2.90;;
69410;SDS011;56604;48.652;9.194;2023-05-07T07:33:18;8.70;;;3.23;;
69410;SDS011;56604;48.652;9.194;2023-05-07T07:35:43;5.80;;;3.63;;
69410;SDS011;56604;48.652;9.194;2023-05-07T07:38:09;2.97;;;2.77;;
69410;SDS011;56604;48.652;9.194;2023-05-07T07:40:34;4.67;;;3.07;;
69410;SDS011;56604;48.652;9.194;2023-05-07T07:43:00;9.47;;;4.20;;
69410;SDS011;56604;48.652;9.194;2023-05-07T07:45:26;4.63;;;2.87;;
69410;SDS011;56604;48.652;9.194;2023-05-07T07:47:51;3.27;;;3.03;;
69410;SDS011;56604;48.652;9.194;2023-05-07T07:50:17;3.50;;;2.73;;
69410;SDS011;56604;48.652;9.194;2023-05-07T07:52:42;4.33;;;2.87;;
69410;SDS011;56604;48.652;9.194;2023-05-07T07:55:07;3.37;;;2.93;;
69410;SDS011;56604;48.652;9.194;2023-05-07T07:57:33;2.93;;;2.73;;
69410;SDS011;56604;48.652;9.194;2023-05-07T07:59:58;3.20;;;2.93;;
69410;SDS011;56604;48.652;9.194;2023-05-07T08:02:24;6.27;;;2.80;;
69410;SDS011;56604;48.652;9.194;2023-05-07T08:04:50;3.00;;;2.80;;
69410;SDS011;56604;48.652;9.194;2023-05-07T08:07:15;3.03;;;2.70;;
69410;SDS011;56604;48.652;9.194;2023-05-07T08:09:43;3.33;;;3.03;;
69410;SDS011;56604;48.652;9.194;2023-05-07T08:12:08;3.03;;;2.80;;
69410;SDS011;56604;48.652;9.194;2023-05-07T08:14:34;3.23;;;3.03;;
69410;SDS011;56604;48.652;9.194;2023-05-07T08:17:01;3.27;;;2.97;;
69410;SDS011;56604;48.652;9.194;2023-05-07T08:19:26;6.20;;;2.93;;
69410;SDS011;56604;48.652;9.194;2023-05-07T08:21:51;8.63;;;3.00;;
69410;SDS011;56604;48.652;9.194;2023-05-07T08:24:17;3.10;;;2.90;;
69410;SDS011;56604;48.652;9.194;2023-05-07T08:26:43;2.67;;;2.60;;
69410;SDS011;56604;48.652;9.194;2023-05-07T08:29:09;2.97;;;2.87;;
69410;SDS011;56604;48.652;9.194;2023-05-07T08:31:34;8.40;;;3.17;;
69410;SDS011;56604;48.652;9.194;2023-05-07T08:34:00;3.20;;;2.90;;
69410;SDS011;56604;48.652;9.194;2023-05-07T08:36:25;9.73;;;3.50;;
69410;SDS011;56604;48.652;9.194;2023-05-07T08:38:51;4.87;;;3.70;;
69410;SDS011;56604;48.652;9.194;2023-05-07T08:41:17;4.13;;;3.10;;
69410;SDS011;56604;48.652;9.194;2023-05-07T08:43:42;3.60;;;3.33;;
69410;SDS011;56604;48.652;9.194;2023-05-07T08:46:13;5.70;;;3.77;;
69410;SDS011;56604;48.652;9.194;2023-05-07T08:48:43;3.90;;;3.60;;
69410;SDS011;56604;48.652;9.194;2023-05-07T08:51:11;4.00;;;3.20;;
69410;SDS011;56604;48.652;9.194;2023-05-07T08:53:38;3.87;;;3.40;;
69410;SDS011;56604;48.652;9.194;2023-05-07T08:56:06;4.47;;;2.90;;
69410;SDS011;56604;48.652;9.194;2023-05-07T08:58:33;3.70;;;3.43;;
69410;SDS011;56604;48.652;9.194;2023-05-07T09:00:58;9.47;;;3.00;;
69410;SDS011;56604;48.652;9.194;2023-05-07T09:03:25;3.30;;;3.10;;
69410;SDS011;56604;48.652;9.194;2023-05-07T09:05:50;3.70;;;3.33;;
69410;SDS011;56604;48.652;9.194;2023-05-07T09:08:16;3.20;;;3.00;;
69410;SDS011;56604;48.652;9.194;2023-05-07T09:10:41;4.63;;;3.13;;
69410;SDS011;56604;48.652;9.194;2023-05-07T09:13:07;5.10;;;3.00;;
69410;SDS011;56604;48.652;9.194;2023-05-07T09:15:32;2.87;;;2.57;;
69410;SDS011;56604;48.652;9.194;2023-05-07T09:18:00;3.03;;;2.83;;
69410;SDS011;56604;48.652;9.194;2023-05-07T09:20:26;2.80;;;2.60;;
69410;SDS011;56604;48.652;9.194;2023-05-07T09:22:51;3.00;;;2.70;;
69410;SDS011;56604;48.652;9.194;2023-05-07T09:25:18;4.30;;;2.57;;
69410;SDS011;56604;48.652;9.194;2023-05-07T09:27:53;3.10;;;2.90;;
69410;SDS011;56604;48.652;9.194;2023-05-07T09:30:18;2.97;;;2.77;;
69410;SDS011;56604;48.652;9.194;2023-05-07T09:32:43;3.57;;;3.27;;
69410;SDS011;56604;48.652;9.194;2023-05-07T09:35:15;3.63;;;2.83;;
69410;SDS011;56604;48.652;9.194;2023-05-07T09:37:46;3.50;;;3.10;;
69410;SDS011;56604;48.652;9.194;2023-05-07T09:40:24;3.77;;;3.13;;
69410;SDS011;56604;48.652;9.194;2023-05-07T09:42:51;3.30;;;2.80;;
69410;SDS011;56604;48.652;9.194;2023-05-07T09:45:29;4.27;;;2.60;;
69410;SDS011;56604;48.652;9.194;2023-05-07T09:47:55;3.80;;;2.80;;
69410;SDS011;56604;48.652;9.194;2023-05-07T09:50:28;7.80;;;3.93;;
69410;SDS011;56604;48.652;9.194;2023-05-07T09:52:56;2.73;;;2.63;;
69410;SDS011;56604;48.652;9.194;2023-05-07T09:55:22;7.47;;;2.83;;
69410;SDS011;56604;48.652;9.194;2023-05-07T09:57:51;4.03;;;2.80;;
69410;SDS011;56604;48.652;9.194;2023-05-07T10:00:21;4.90;;;2.90;;
69410;SDS011;56604;48.652;9.194;2023-05-07T10:02:48;11.20;;;2.60;;
69410;SDS011;56604;48.652;9.194;2023-05-07T10:05:16;3.00;;;2.80;;
69410;SDS011;56604;48.652;9.194;2023-05-07T10:07:41;9.80;;;3.10;;
69410;SDS011;56604;48.652;9.194;2023-05-07T10:10:08;2.33;;;2.10;;
69410;SDS011;56604;48.652;9.194;2023-05-07T10:12:33;6.30;;;2.47;;
69410;SDS011;56604;48.652;9.194;2023-05-07T10:15:05;9.20;;;2.30;;
69410;SDS011;56604;48.652;9.194;2023-05-07T10:17:31;2.77;;;2.60;;
69410;SDS011;56604;48.652;9.194;2023-05-07T10:19:59;2.83;;;2.57;;
69410;SDS011;56604;48.652;9.194;2023-05-07T10:22:25;3.27;;;3.07;;
69410;SDS011;56604;48.652;9.194;2023-05-07T10:24:52;4.43;;;3.07;;
69410;SDS011;56604;48.652;9.194;2023-05-07T10:27:20;4.13;;;2.60;;
69410;SDS011;56604;48.652;9.194;2023-05-07T10:30:01;4.30;;;3.00;;
69410;SDS011;56604;48.652;9.194;2023-05-07T10:32:39;3.10;;;2.50;;
69410;SDS011;56604;48.652;9.194;2023-05-07T10:35:10;6.10;;;3.50;;
69410;SDS011;56604;48.652;9.194;2023-05-07T10:37:44;3.13;;;2.90;;
69410;SDS011;56604;48.652;9.194;2023-05-07T10:40:11;4.33;;;3.03;;
69410;SDS011;56604;48.652;9.194;2023-05-07T10:42:37;4.20;;;3.03;;
69410;SDS011;56604;48.652;9.194;2023-05-07T10:45:12;4.27;;;2.90;;
69410;SDS011;56604;48.652;9.194;2023-05-07T10:48:05;3.00;;;2.80;;
69410;SDS011;56604;48.652;9.194;2023-05-07T10:50:38;3.20;;;2.90;;
69410;SDS011;56604;48.652;9.194;2023-05-07T10:55:42;7.40;;;3.70;;
69410;SDS011;56604;48.652;9.194;2023-05-07T10:58:33;3.53;;;2.93;;
69410;SDS011;56604;48.652;9.194;2023-05-07T11:01:01;3.13;;;2.80;;
69410;SDS011;56604;48.652;9.194;2023-05-07T11:03:27;10.50;;;3.03;;
69410;SDS011;56604;48.652;9.194;2023-05-07T11:06:09;2.70;;;2.60;;
69410;SDS011;56604;48.652;9.194;2023-05-07T11:11:20;7.90;;;2.90;;
69410;SDS011;56604;48.652;9.194;2023-05-07T11:17:09;2.63;;;2.37;;
69410;SDS011;56604;48.652;9.194;2023-05-07T11:19:48;2.77;;;2.13;;
69410;SDS011;56604;48.652;9.194;2023-05-07T11:24:56;2.63;;;2.50;;
69410;SDS011;56604;48.652;9.194;2023-05-07T11:27:24;8.33;;;2.30;;
69410;SDS011;56604;48.652;9.194;2023-05-07T11:29:50;4.10;;;2.83;;
69410;SDS011;56604;48.652;9.194;2023-05-07T11:32:15;2.50;;;2.40;;
69410;SDS011;56604;48.652;9.194;2023-05-07T11:34:47;2.93;;;2.70;;
69410;SDS011;56604;48.652;9.194;2023-05-07T11:37:19;2.70;;;2.60;;
69410;SDS011;56604;48.652;9.194;2023-05-07T11:39:45;2.70;;;2.50;;
69410;SDS011;56604;48.652;9.194;2023-05-07T11:42:24;2.90;;;2.60;;
69410;SDS011;56604;48.652;9.194;2023-05-07T11:44:51;2.60;;;2.40;;
69410;SDS011;56604;48.652;9.194;2023-05-07T11:47:17;4.90;;;2.60;;
69410;SDS011;56604;48.652;9.194;2023-05-07T11:49:45;2.73;;;2.53;;
69410;SDS011;56604;48.652;9.194;2023-05-07T11:52:15;2.97;;;2.73;;
69410;SDS011;56604;48.652;9.194;2023-05-07T11:54:41;2.80;;;2.60;;
69410;SDS011;56604;48.652;9.194;2023-05-07T11:57:16;2.33;;;2.13;;
69410;SDS011;56604;48.652;9.194;2023-05-07T11:59:41;2.47;;;2.27;;
69410;SDS011;56604;48.652;9.194;2023-05-07T12:02:09;3.97;;;2.20;;
69410;SDS011;56604;48.652;9.194;2023-05-07T12:04:35;4.03;;;2.23;;
69410;SDS011;56604;48.652;9.194;2023-05-07T12:07:00;2.43;;;2.33;;
69410;SDS011;56604;48.652;9.194;2023-05-07T12:09:26;2.27;;;2.17;;
69410;SDS011;56604;48.652;9.194;2023-05-07T12:11:51;6.43;;;2.73;;
69410;SDS011;56604;48.652;9.194;2023-05-07T12:14:17;2.67;;;2.47;;
69410;SDS011;56604;48.652;9.194;2023-05-07T12:16:43;2.80;;;2.60;;
69410;SDS011;56604;48.652;9.194;2023-05-07T12:19:09;4.00;;;2.40;;
69410;SDS011;56604;48.652;9.194;2023-05-07T12:21:37;2.90;;;2.63;;
69410;SDS011;56604;48.652;9.194;2023-05-07T12:24:03;3.73;;;2.50;;
69410;SDS011;56604;48.652;9.194;2023-05-07T12:26:28;2.37;;;2.23;;
69410;SDS011;56604;48.652;9.194;2023-05-07T12:28:54;2.50;;;2.30;;
69410;SDS011;56604;48.652;9.194;2023-05-07T12:31:19;2.43;;;2.30;;
69410;SDS011;56604;48.652;9.194;2023-05-07T12:33:45;2.60;;;2.40;;
69410;SDS011;56604;48.652;9.194;2023-05-07T12:36:12;1.90;;;1.80;;
69410;SDS011;56604;48.652;9.194;2023-05-07T12:38:38;4.27;;;2.50;;
69410;SDS011;56604;48.652;9.194;2023-05-07T12:41:06;3.63;;;3.13;;
69410;SDS011;56604;48.652;9.194;2023-05-07T12:43:32;2.60;;;2.40;;
69410;SDS011;56604;48.652;9.194;2023-05-07T12:46:05;2.20;;;2.00;;
69410;SDS011;56604;48.652;9.194;2023-05-07T12:48:31;8.27;;;2.20;;
69410;SDS011;56604;48.652;9.194;2023-05-07T12:50:58;4.30;;;1.40;;
69410;SDS011;56604;48.652;9.194;2023-05-07T12:53:25;1.37;;;1.27;;
69410;SDS011;56604;48.652;9.194;2023-05-07T12:55:52;2.00;;;1.90;;
69410;SDS011;56604;48.652;9.194;2023-05-07T12:58:22;2.03;;;1.90;;
69410;SDS011;56604;48.652;9.194;2023-05-07T13:00:50;2.00;;;1.90;;
69410;SDS011;56604;48.652;9.194;2023-05-07T13:03:37;11.37;;;2.00;;
69410;SDS011;56604;48.652;9.194;2023-05-07T13:06:03;3.70;;;1.60;;
69410;SDS011;56604;48.652;9.194;2023-05-07T13:08:31;3.47;;;1.90;;
69410;SDS011;56604;48.652;9.194;2023-05-07T13:10:59;4.93;;;1.90;;
69410;SDS011;56604;48.652;9.194;2023-05-07T13:13:32;8.63;;;2.03;;
69410;SDS011;56604;48.652;9.194;2023-05-07T13:15:58;1.77;;;1.43;;
69410;SDS011;56604;48.652;9.194;2023-05-07T13:18:25;1.63;;;1.50;;
69410;SDS011;56604;48.652;9.194;2023-05-07T13:20:51;3.50;;;1.77;;
69410;SDS011;56604;48.652;9.194;2023-05-07T13:23:17;1.73;;;1.63;;
69410;SDS011;56604;48.652;9.194;2023-05-07T13:25:42;2.83;;;1.70;;
69410;SDS011;56604;48.652;9.194;2023-05-07T13:28:08;3.90;;;1.80;;
69410;SDS011;56604;48.652;9.194;2023-05-07T13:30:33;2.30;;;2.10;;
69410;SDS011;56604;48.652;9.194;2023-05-07T13:32:58;6.90;;;2.13;;
69410;SDS011;56604;48.652;9.194;2023-05-07T13:35:24;2.43;;;1.70;;
69410;SDS011;56604;48.652;9.194;2023-05-07T13:37:50;3.90;;;2.10;;
69410;SDS011;56604;48.652;9.194;2023-05-07T13:40:17;3.20;;;2.30;;
69410;SDS011;56604;48.652;9.194;2023-05-07T13:42:44;9.60;;;2.50;;
69410;SDS011;56604;48.652;9.194;2023-05-07T13:45:09;8.87;;;3.10;;
69410;SDS011;56604;48.652;9.194;2023-05-07T13:47:35;8.40;;;3.30;;
69410;SDS011;56604;48.652;9.194;2023-05-07T13:50:00;8.03;;;3.57;;
69410;SDS011;56604;48.652;9.194;2023-05-07T13:52:25;3.57;;;3.27;;
69410;SDS011;56604;48.652;9.194;2023-05-07T13:54:52;4.30;;;3.60;;
69410;SDS011;56604;48.652;9.194;2023-05-07T13:57:18;5.63;;;3.90;;
69410;SDS011;56604;48.652;9.194;2023-05-07T13:59:43;10.43;;;3.60;;
69410;SDS011;56604;48.652;9.194;2023-05-07T14:02:09;7.60;;;3.63;;
69410;SDS011;56604;48.652;9.194;2023-05-07T14:04:34;16.23;;;4.37;;
69410;SDS011;56604;48.652;9.194;2023-05-07T14:06:59;7.73;;;3.70;;
69410;SDS011;56604;48.652;9.194;2023-05-07T14:09:25;7.40;;;3.93;;
69410;SDS011;56604;48.652;9.194;2023-05-07T14:11:50;4.03;;;3.63;;
69410;SDS011;56604;48.652;9.194;2023-05-07T14:14:19;5.43;;;3.00;;
69410;SDS011;56604;48.652;9.194;2023-05-07T14:16:44;3.53;;;2.93;;
69410;SDS011;56604;48.652;9.194;2023-05-07T14:19:10;3.60;;;3.13;;
69410;SDS011;56604;48.652;9.194;2023-05-07T14:21:36;6.73;;;3.03;;
69410;SDS011;56604;48.652;9.194;2023-05-07T14:24:02;3.37;;;2.97;;
69410;SDS011;56604;48.652;9.194;2023-05-07T14:26:27;3.30;;;3.00;;
69410;SDS011;56604;48.652;9.194;2023-05-07T14:28:53;3.70;;;3.37;;
69410;SDS011;56604;48.652;9.194;2023-05-07T14:31:20;6.07;;;3.37;;
69410;SDS011;56604;48.652;9.194;2023-05-07T14:33:45;3.30;;;3.00;;
69410;SDS011;56604;48.652;9.194;2023-05-07T14:36:11;8.77;;;2.83;;
69410;SDS011;56604;48.652;9.194;2023-05-07T14:38:36;8.50;;;3.20;;
69410;SDS011;56604;48.652;9.194;2023-05-07T14:41:01;3.93;;;3.30;;
69410;SDS011;56604;48.652;9.194;2023-05-07T14:43:27;3.97;;;3.37;;
69410;SDS011;56604;48.652;9.194;2023-05-07T14:45:52;5.60;;;3.13;;
69410;SDS011;56604;48.652;9.194;2023-05-07T14:48:17;3.70;;;2.60;;
69410;SDS011;56604;48.652;9.194;2023-05-07T14:50:43;5.40;;;2.53;;
69410;SDS011;56604;48.652;9.194;2023-05-07T14:53:08;5.13;;;3.13;;
69410;SDS011;56604;48.652;9.194;2023-05-07T14:55:33;3.40;;;2.37;;